createdAt,value
2022-12-25T00:00:00.562Z,1015.70
2022-12-25T00:01:01.243Z,1015.66
2022-12-25T00:02:02.749Z,1015.70
2022-12-25T00:03:03.438Z,1015.72
2022-12-25T00:04:04.230Z,1015.68
2022-12-25T00:05:04.848Z,1015.62
2022-12-25T00:06:05.439Z,1015.70
2022-12-25T00:07:06.046Z,1015.76
2022-12-25T00:08:06.639Z,1015.62
2022-12-25T00:09:07.396Z,1015.53
2022-12-25T00:10:07.979Z,1015.52
2022-12-25T00:11:08.577Z,1015.43
2022-12-25T00:12:09.181Z,1015.41
2022-12-25T00:13:09.924Z,1015.50
2022-12-25T00:14:10.521Z,1015.43
2022-12-25T00:15:11.122Z,1015.44
2022-12-25T00:16:11.779Z,1015.43
2022-12-25T00:17:12.457Z,1015.42
2022-12-25T00:18:13.039Z,1015.43
2022-12-25T00:19:13.638Z,1015.45
2022-12-25T00:20:14.289Z,1015.46
2022-12-25T00:21:14.884Z,1015.45
2022-12-25T00:22:15.488Z,1015.39
2022-12-25T00:23:16.091Z,1015.38
2022-12-25T00:24:16.676Z,1015.43
2022-12-25T00:25:17.279Z,1015.43
2022-12-25T00:26:17.875Z,1015.41
2022-12-25T00:27:18.477Z,1015.44
2022-12-25T00:28:19.070Z,1015.39
2022-12-25T00:29:19.673Z,1015.40
2022-12-25T00:31:21.725Z,1015.30
2022-12-25T00:32:22.317Z,1015.29
2022-12-25T00:33:23.758Z,1015.24
2022-12-25T00:34:24.368Z,1015.24
2022-12-25T00:35:25.112Z,1015.19
2022-12-25T00:36:25.715Z,1015.24
2022-12-25T00:37:26.303Z,1015.14
2022-12-25T00:38:26.946Z,1015.12
2022-12-25T00:39:27.527Z,1015.12
2022-12-25T00:40:28.339Z,1015.01
2022-12-25T00:41:28.925Z,1014.99
2022-12-25T00:42:29.577Z,1015.03
2022-12-25T00:43:30.171Z,1015.02
2022-12-25T00:44:30.775Z,1014.89
2022-12-25T00:45:31.389Z,1014.83
2022-12-25T00:46:32.100Z,1014.90
2022-12-25T00:47:32.716Z,1014.90
2022-12-25T00:48:33.324Z,1014.78
2022-12-25T00:49:33.906Z,1014.83
2022-12-25T00:50:34.509Z,1014.77
2022-12-25T00:51:35.123Z,1014.82
2022-12-25T00:52:35.765Z,1014.79
2022-12-25T00:53:36.425Z,1014.84
2022-12-25T00:54:37.015Z,1014.83
2022-12-25T00:55:37.613Z,1014.77
2022-12-25T00:56:38.211Z,1014.79
2022-12-25T00:57:38.807Z,1014.84
2022-12-25T00:58:39.405Z,1014.81
2022-12-25T00:59:40.008Z,1014.87
2022-12-25T01:00:40.624Z,1014.89
2022-12-25T01:01:41.386Z,1015.10
2022-12-25T01:02:42.134Z,1015.11
2022-12-25T01:03:42.786Z,1015.05
2022-12-25T01:04:43.401Z,1015.07
2022-12-25T01:05:44.004Z,1015.17
2022-12-25T01:06:44.596Z,1015.15
2022-12-25T01:07:45.205Z,1015.12
2022-12-25T01:08:45.800Z,1015.01
2022-12-25T01:09:46.462Z,1015.07
2022-12-25T01:10:47.060Z,1015.03
2022-12-25T01:11:47.655Z,1014.89
2022-12-25T01:12:48.249Z,1014.98
2022-12-25T01:13:48.853Z,1014.89
2022-12-25T01:14:49.442Z,1014.83
2022-12-25T01:15:50.054Z,1014.75
2022-12-25T01:16:50.688Z,1014.73
2022-12-25T01:17:51.310Z,1014.71
2022-12-25T01:18:51.988Z,1014.76
2022-12-25T01:19:52.576Z,1014.66
2022-12-25T01:20:53.178Z,1014.61
2022-12-25T01:21:53.833Z,1014.44
2022-12-25T01:22:54.424Z,1014.33
2022-12-25T01:23:55.054Z,1014.31
2022-12-25T01:24:55.649Z,1014.18
2022-12-25T01:25:56.302Z,1014.12
2022-12-25T01:26:56.902Z,1013.96
2022-12-25T01:27:57.509Z,1013.80
2022-12-25T01:28:58.109Z,1013.86
2022-12-25T01:29:58.710Z,1013.95
2022-12-25T01:30:59.301Z,1013.90
2022-12-25T01:31:59.934Z,1014.01
2022-12-25T01:33:00.568Z,1014.10
2022-12-25T01:34:01.167Z,1013.99
2022-12-25T01:35:01.881Z,1013.90
2022-12-25T01:36:02.550Z,1013.81
2022-12-25T01:37:03.188Z,1013.89
2022-12-25T01:38:03.796Z,1013.72
2022-12-25T01:39:04.448Z,1013.64
2022-12-25T01:40:05.051Z,1013.48
2022-12-25T01:41:05.713Z,1013.48
2022-12-25T01:42:06.314Z,1013.38
2022-12-25T01:43:06.906Z,1013.27
2022-12-25T01:44:07.694Z,1013.33
2022-12-25T01:45:09.128Z,1013.41
2022-12-25T01:46:09.804Z,1013.59
2022-12-25T01:47:10.432Z,1013.64
2022-12-25T01:48:11.032Z,1013.66
2022-12-25T01:49:11.635Z,1013.55
2022-12-25T01:50:12.228Z,1013.62
2022-12-25T01:51:12.821Z,1013.59
2022-12-25T01:52:13.475Z,1013.62
2022-12-25T01:53:14.067Z,1013.70
2022-12-25T01:54:14.673Z,1013.64
2022-12-25T01:55:15.266Z,1013.68
2022-12-25T01:56:15.873Z,1013.69
2022-12-25T01:57:16.459Z,1013.65
2022-12-25T01:58:17.222Z,1013.69
2022-12-25T01:59:17.808Z,1013.82
2022-12-25T02:00:18.408Z,1013.76
2022-12-25T02:01:19.083Z,1013.79
2022-12-25T02:02:19.837Z,1013.87
2022-12-25T02:03:20.636Z,1013.78
2022-12-25T02:04:21.267Z,1013.76
2022-12-25T02:05:21.851Z,1013.80
2022-12-25T02:06:22.454Z,1014.00
2022-12-25T02:07:23.054Z,1014.06
2022-12-25T02:08:23.658Z,1013.94
2022-12-25T02:09:24.245Z,1014.01
2022-12-25T02:10:24.853Z,1014.06
2022-12-25T02:11:25.515Z,1014.14
2022-12-25T02:12:26.120Z,1014.00
2022-12-25T02:13:26.706Z,1014.03
2022-12-25T02:14:27.320Z,1014.13
2022-12-25T02:15:27.897Z,1013.97
2022-12-25T02:16:28.645Z,1013.97
2022-12-25T02:17:29.314Z,1014.00
2022-12-25T02:18:29.901Z,1014.08
2022-12-25T02:19:30.497Z,1014.09
2022-12-25T02:20:31.100Z,1014.09
2022-12-25T02:21:31.696Z,1013.99
2022-12-25T02:22:32.299Z,1013.97
2022-12-25T02:23:32.898Z,1014.00
2022-12-25T02:24:33.508Z,1014.03
2022-12-25T02:25:34.096Z,1014.03
2022-12-25T02:26:34.695Z,1014.03
2022-12-25T02:27:35.287Z,1014.16
2022-12-25T02:28:35.888Z,1014.12
2022-12-25T02:29:36.554Z,1014.13
2022-12-25T02:30:37.157Z,1014.21
2022-12-25T02:31:37.820Z,1014.18
2022-12-25T02:32:38.411Z,1014.29
2022-12-25T02:33:39.999Z,1014.29
2022-12-25T02:34:40.599Z,1014.35
2022-12-25T02:35:41.199Z,1014.35
2022-12-25T02:36:41.854Z,1014.29
2022-12-25T02:37:42.493Z,1014.33
2022-12-25T02:38:43.096Z,1014.41
2022-12-25T02:39:43.696Z,1014.41
2022-12-25T02:40:44.289Z,1014.41
2022-12-25T02:41:45.683Z,1014.54
2022-12-25T02:42:46.289Z,1014.54
2022-12-25T02:43:46.883Z,1014.50
2022-12-25T02:44:47.495Z,1014.43
2022-12-25T02:45:48.114Z,1014.35
2022-12-25T02:46:48.852Z,1014.34
2022-12-25T02:47:49.494Z,1014.26
2022-12-25T02:48:50.100Z,1014.31
2022-12-25T02:49:50.705Z,1014.42
2022-12-25T02:50:51.301Z,1014.45
2022-12-25T02:51:51.894Z,1014.40
2022-12-25T02:52:52.496Z,1014.28
2022-12-25T02:53:53.089Z,1014.25
2022-12-25T02:54:53.690Z,1014.11
2022-12-25T02:55:54.283Z,1014.02
2022-12-25T02:56:54.884Z,1014.11
2022-12-25T02:57:55.482Z,1014.09
2022-12-25T02:58:56.932Z,1014.13
2022-12-25T02:59:57.575Z,1014.15
2022-12-25T03:00:58.259Z,1014.09
2022-12-25T03:01:58.993Z,1014.03
2022-12-25T03:02:59.721Z,1014.02
2022-12-25T03:04:00.317Z,1014.01
2022-12-25T03:05:00.912Z,1013.98
2022-12-25T03:06:01.577Z,1014.02
2022-12-25T03:07:02.185Z,1014.00
2022-12-25T03:08:02.780Z,1014.05
2022-12-25T03:09:03.376Z,1013.93
2022-12-25T03:10:03.982Z,1013.93
2022-12-25T03:11:04.568Z,1013.82
2022-12-25T03:12:06.160Z,1013.54
2022-12-25T03:13:06.761Z,1013.42
2022-12-25T03:14:07.353Z,1013.32
2022-12-25T03:15:07.956Z,1013.31
2022-12-25T03:16:08.557Z,1013.31
2022-12-25T03:17:09.172Z,1013.30
2022-12-25T03:18:09.836Z,1013.42
2022-12-25T03:19:10.482Z,1013.47
2022-12-25T03:20:11.073Z,1013.60
2022-12-25T03:21:11.677Z,1013.58
2022-12-25T03:22:12.273Z,1013.58
2022-12-25T03:23:12.877Z,1013.54
2022-12-25T03:24:13.475Z,1013.54
2022-12-25T03:25:14.075Z,1013.48
2022-12-25T03:26:14.671Z,1013.35
2022-12-25T03:27:15.279Z,1013.48
2022-12-25T03:28:15.879Z,1013.49
2022-12-25T03:29:16.478Z,1013.55
2022-12-25T03:30:17.092Z,1013.58
2022-12-25T03:31:17.776Z,1013.53
2022-12-25T03:32:18.365Z,1013.58
2022-12-25T03:33:43.973Z,1013.63
2022-12-25T03:34:20.572Z,1013.62
2022-12-25T03:35:21.213Z,1013.52
2022-12-25T03:36:21.810Z,1013.52
2022-12-25T03:37:22.408Z,1013.44
2022-12-25T03:38:23.040Z,1013.46
2022-12-25T03:39:23.648Z,1013.37
2022-12-25T03:40:24.241Z,1013.36
2022-12-25T03:41:24.843Z,1013.40
2022-12-25T03:42:25.447Z,1013.40
2022-12-25T03:43:26.044Z,1013.29
2022-12-25T03:44:26.640Z,1013.12
2022-12-25T03:45:27.239Z,1012.97
2022-12-25T03:46:27.905Z,1012.90
2022-12-25T03:47:28.515Z,1012.88
2022-12-25T03:48:29.153Z,1012.88
2022-12-25T03:49:30.073Z,1013.02
2022-12-25T03:50:30.716Z,1013.02
2022-12-25T03:51:31.369Z,1013.18
2022-12-25T03:52:31.963Z,1013.28
2022-12-25T03:53:32.566Z,1013.34
2022-12-25T03:54:33.163Z,1013.42
2022-12-25T03:55:33.763Z,1013.25
2022-12-25T03:56:34.360Z,1013.44
2022-12-25T03:57:34.994Z,1013.37
2022-12-25T03:58:35.601Z,1013.55
2022-12-25T03:59:36.204Z,1013.55
2022-12-25T04:00:36.801Z,1013.67
2022-12-25T04:01:37.453Z,1013.61
2022-12-25T04:02:38.375Z,1013.53
2022-12-25T04:03:39.094Z,1013.46
2022-12-25T04:04:40.559Z,1013.55
2022-12-25T04:05:41.162Z,1013.50
2022-12-25T04:06:41.804Z,1013.51
2022-12-25T04:07:42.403Z,1013.44
2022-12-25T04:08:43.007Z,1013.41
2022-12-25T04:09:43.666Z,1013.51
2022-12-25T04:10:44.259Z,1013.55
2022-12-25T04:11:44.865Z,1013.58
2022-12-25T04:12:45.455Z,1013.62
2022-12-25T04:13:46.059Z,1013.61
2022-12-25T04:14:46.655Z,1013.68
2022-12-25T04:15:47.310Z,1013.80
2022-12-25T04:16:47.919Z,1013.86
2022-12-25T04:17:48.589Z,1013.84
2022-12-25T04:18:49.179Z,1013.84
2022-12-25T04:19:49.771Z,1013.84
2022-12-25T04:20:50.366Z,1013.70
2022-12-25T04:21:50.974Z,1013.67
2022-12-25T04:22:51.639Z,1013.74
2022-12-25T04:23:52.238Z,1013.77
2022-12-25T04:24:52.823Z,1013.78
2022-12-25T04:25:53.498Z,1013.83
2022-12-25T04:26:54.197Z,1013.95
2022-12-25T04:27:54.800Z,1014.12
2022-12-25T04:28:55.392Z,1014.12
2022-12-25T04:29:55.989Z,1014.15
2022-12-25T04:30:56.637Z,1014.11
2022-12-25T04:31:57.244Z,1014.07
2022-12-25T04:32:57.837Z,1014.16
2022-12-25T04:33:58.440Z,1014.24
2022-12-25T04:34:59.031Z,1014.25
2022-12-25T04:35:59.940Z,1014.25
2022-12-25T04:37:00.542Z,1014.13
2022-12-25T04:38:01.141Z,1014.14
2022-12-25T04:39:01.726Z,1014.04
2022-12-25T04:40:02.341Z,1014.13
2022-12-25T04:41:02.921Z,1014.12
2022-12-25T04:42:03.533Z,1014.01
2022-12-25T04:43:04.135Z,1014.06
2022-12-25T04:44:04.734Z,1014.01
2022-12-25T04:45:05.328Z,1014.07
2022-12-25T04:46:05.978Z,1014.00
2022-12-25T04:47:11.108Z,1013.97
2022-12-25T04:48:08.178Z,1013.95
2022-12-25T04:49:08.778Z,1014.04
2022-12-25T04:50:09.390Z,1014.07
2022-12-25T04:51:09.986Z,1013.88
2022-12-25T04:52:10.641Z,1013.97
2022-12-25T04:53:12.150Z,1013.97
2022-12-25T04:54:12.755Z,1013.93
2022-12-25T04:55:13.355Z,1014.05
2022-12-25T04:56:13.954Z,1014.05
2022-12-25T04:57:14.551Z,1014.14
2022-12-25T04:58:15.209Z,1013.99
2022-12-25T04:59:15.855Z,1013.99
2022-12-25T05:00:17.255Z,1013.82
2022-12-25T05:01:17.966Z,1013.88
2022-12-25T05:02:18.936Z,1013.85
2022-12-25T05:03:19.700Z,1013.88
2022-12-25T05:04:20.299Z,1013.88
2022-12-25T05:05:20.891Z,1013.90
2022-12-25T05:06:21.494Z,1013.95
2022-12-25T05:07:22.091Z,1014.09
2022-12-25T05:08:22.694Z,1014.09
2022-12-25T05:09:23.287Z,1014.02
2022-12-25T05:10:24.061Z,1013.90
2022-12-25T05:11:24.656Z,1013.83
2022-12-25T05:12:25.308Z,1013.81
2022-12-25T05:13:25.899Z,1013.76
2022-12-25T05:14:26.555Z,1013.74
2022-12-25T05:15:27.140Z,1013.83
2022-12-25T05:16:27.797Z,1013.81
2022-12-25T05:17:28.440Z,1013.81
2022-12-25T05:18:29.068Z,1013.78
2022-12-25T05:19:29.670Z,1013.80
2022-12-25T05:20:33.419Z,1013.82
2022-12-25T05:21:31.858Z,1013.84
2022-12-25T05:22:32.466Z,1013.84
2022-12-25T05:23:33.057Z,1013.83
2022-12-25T05:24:33.656Z,1013.78
2022-12-25T05:25:34.252Z,1013.87
2022-12-25T05:26:34.845Z,1013.85
2022-12-25T05:27:35.454Z,1013.85
2022-12-25T05:28:36.061Z,1013.88
2022-12-25T05:29:36.646Z,1013.87
2022-12-25T05:30:37.240Z,1013.92
2022-12-25T05:31:37.889Z,1013.94
2022-12-25T05:32:38.488Z,1013.94
2022-12-25T05:33:39.091Z,1013.98
2022-12-25T05:34:40.503Z,1014.03
2022-12-25T05:35:41.152Z,1013.97
2022-12-25T05:36:41.743Z,1013.94
2022-12-25T05:37:42.350Z,1014.04
2022-12-25T05:38:42.942Z,1013.94
2022-12-25T05:39:43.543Z,1013.83
2022-12-25T05:40:44.140Z,1013.87
2022-12-25T05:41:44.751Z,1013.83
2022-12-25T05:42:45.346Z,1013.85
2022-12-25T05:43:45.941Z,1013.90
2022-12-25T05:44:46.533Z,1013.87
2022-12-25T05:45:47.134Z,1013.92
2022-12-25T05:46:47.807Z,1013.94
2022-12-25T05:47:48.435Z,1014.04
2022-12-25T05:48:49.036Z,1014.08
2022-12-25T05:49:49.631Z,1014.05
2022-12-25T05:50:50.229Z,1014.23
2022-12-25T05:51:50.834Z,1014.18
2022-12-25T05:52:51.519Z,1014.23
2022-12-25T05:53:52.121Z,1014.23
2022-12-25T05:54:52.716Z,1014.17
2022-12-25T05:55:53.331Z,1014.03
2022-12-25T05:56:53.995Z,1013.96
2022-12-25T05:57:54.595Z,1013.94
2022-12-25T05:58:55.210Z,1014.08
2022-12-25T05:59:55.807Z,1014.13
2022-12-25T06:00:56.399Z,1014.22
2022-12-25T06:01:57.078Z,1014.12
2022-12-25T06:02:57.773Z,1014.18
2022-12-25T06:03:58.450Z,1014.05
2022-12-25T06:04:59.122Z,1014.10
2022-12-25T06:05:59.724Z,1014.06
2022-12-25T06:07:00.316Z,1014.11
2022-12-25T06:08:00.988Z,1014.11
2022-12-25T06:09:01.580Z,1014.03
2022-12-25T06:10:02.168Z,1014.05
2022-12-25T06:11:02.763Z,1014.04
2022-12-25T06:12:03.365Z,1014.05
2022-12-25T06:13:03.971Z,1014.15
2022-12-25T06:14:04.573Z,1014.22
2022-12-25T06:15:05.171Z,1014.16
2022-12-25T06:16:05.797Z,1014.22
2022-12-25T06:17:06.407Z,1014.26
2022-12-25T06:18:07.001Z,1014.33
2022-12-25T06:19:07.594Z,1014.33
2022-12-25T06:20:08.193Z,1014.30
2022-12-25T06:21:08.789Z,1014.34
2022-12-25T06:22:09.389Z,1014.34
2022-12-25T06:23:10.188Z,1014.26
2022-12-25T06:24:13.461Z,1014.24
2022-12-25T06:25:12.393Z,1014.27
2022-12-25T06:26:12.994Z,1014.25
2022-12-25T06:27:13.589Z,1014.22
2022-12-25T06:28:14.240Z,1014.26
2022-12-25T06:29:14.834Z,1014.22
2022-12-25T06:30:15.445Z,1014.25
2022-12-25T06:31:16.097Z,1014.34
2022-12-25T06:32:16.789Z,1014.35
2022-12-25T06:33:17.385Z,1014.25
2022-12-25T06:34:17.988Z,1014.27
2022-12-25T06:35:18.585Z,1014.24
2022-12-25T06:36:19.207Z,1014.22
2022-12-25T06:37:19.879Z,1014.22
2022-12-25T06:38:20.491Z,1014.26
2022-12-25T06:39:21.084Z,1014.12
2022-12-25T06:40:21.685Z,1014.22
2022-12-25T06:41:22.279Z,1014.19
2022-12-25T06:42:22.892Z,1014.13
2022-12-25T06:43:23.532Z,1014.22
2022-12-25T06:44:24.978Z,1014.26
2022-12-25T06:45:25.644Z,1014.33
2022-12-25T06:46:26.322Z,1014.23
2022-12-25T06:47:26.991Z,1014.24
2022-12-25T06:48:27.600Z,1014.18
2022-12-25T06:49:28.198Z,1014.16
2022-12-25T06:50:28.790Z,1014.19
2022-12-25T06:51:29.459Z,1014.30
2022-12-25T06:52:30.051Z,1014.40
2022-12-25T06:53:37.130Z,1014.37
2022-12-25T06:54:31.312Z,1014.30
2022-12-25T06:55:31.900Z,1014.45
2022-12-25T06:56:32.502Z,1014.47
2022-12-25T06:57:33.102Z,1014.57
2022-12-25T06:58:33.697Z,1014.76
2022-12-25T06:59:34.291Z,1014.58
2022-12-25T07:00:34.896Z,1014.72
2022-12-25T07:01:35.603Z,1014.84
2022-12-25T07:02:36.343Z,1014.96
2022-12-25T07:03:37.005Z,1014.93
2022-12-25T07:04:37.607Z,1014.91
2022-12-25T07:05:38.201Z,1014.85
2022-12-25T07:06:38.802Z,1014.90
2022-12-25T07:07:39.395Z,1014.97
2022-12-25T07:08:40.011Z,1015.07
2022-12-25T07:09:40.606Z,1015.09
2022-12-25T07:10:41.205Z,1015.07
2022-12-25T07:11:41.820Z,1014.95
2022-12-25T07:12:42.459Z,1015.04
2022-12-25T07:13:43.062Z,1015.06
2022-12-25T07:14:43.713Z,1015.16
2022-12-25T07:15:44.302Z,1015.27
2022-12-25T07:16:44.962Z,1015.34
2022-12-25T07:17:45.609Z,1015.44
2022-12-25T07:18:46.206Z,1015.47
2022-12-25T07:19:46.863Z,1015.37
2022-12-25T07:20:47.481Z,1015.41
2022-12-25T07:21:48.060Z,1015.48
2022-12-25T07:22:48.662Z,1015.46
2022-12-25T07:23:49.279Z,1015.34
2022-12-25T07:24:49.864Z,1015.33
2022-12-25T07:25:50.457Z,1015.40
2022-12-25T07:26:51.056Z,1015.52
2022-12-25T07:27:51.649Z,1015.47
2022-12-25T07:28:52.250Z,1015.50
2022-12-25T07:29:52.851Z,1015.56
2022-12-25T07:30:53.497Z,1015.59
2022-12-25T07:31:54.198Z,1015.58
2022-12-25T07:32:54.858Z,1015.56
2022-12-25T07:33:55.520Z,1015.48
2022-12-25T07:34:56.124Z,1015.50
2022-12-25T07:35:56.720Z,1015.50
2022-12-25T07:36:57.395Z,1015.50
2022-12-25T07:37:57.984Z,1015.50
2022-12-25T07:38:58.628Z,1015.50
2022-12-25T07:39:59.222Z,1015.47
2022-12-25T07:40:59.872Z,1015.42
2022-12-25T07:42:00.500Z,1015.47
2022-12-25T07:43:01.593Z,1015.54
2022-12-25T07:44:02.176Z,1015.53
2022-12-25T07:45:02.783Z,1015.68
2022-12-25T07:46:03.485Z,1015.73
2022-12-25T07:47:04.175Z,1015.73
2022-12-25T07:48:06.269Z,1015.75
2022-12-25T07:49:06.415Z,1015.66
2022-12-25T07:50:07.020Z,1015.72
2022-12-25T07:51:07.608Z,1015.73
2022-12-25T07:52:08.204Z,1015.75
2022-12-25T07:53:08.807Z,1015.75
2022-12-25T07:54:09.409Z,1015.77
2022-12-25T07:55:09.993Z,1015.82
2022-12-25T07:56:10.590Z,1015.70
2022-12-25T07:57:11.197Z,1015.82
2022-12-25T07:58:11.777Z,1015.84
2022-12-25T07:59:12.384Z,1015.75
2022-12-25T08:00:12.977Z,1015.81
2022-12-25T08:01:13.663Z,1015.86
2022-12-25T08:02:14.616Z,1015.87
2022-12-25T08:03:15.567Z,1015.86
2022-12-25T08:04:16.332Z,1015.91
2022-12-25T08:05:16.936Z,1015.98
2022-12-25T08:06:17.604Z,1016.09
2022-12-25T08:07:18.208Z,1016.12
2022-12-25T08:08:18.810Z,1016.09
2022-12-25T08:09:19.473Z,1016.14
2022-12-25T08:10:20.064Z,1016.03
2022-12-25T08:11:20.674Z,1016.13
2022-12-25T08:12:21.336Z,1016.14
2022-12-25T08:13:21.936Z,1016.19
2022-12-25T08:14:22.528Z,1016.20
2022-12-25T08:15:23.134Z,1016.21
2022-12-25T08:16:23.787Z,1016.22
2022-12-25T08:17:24.413Z,1016.19
2022-12-25T08:18:29.911Z,1016.19
2022-12-25T08:19:26.594Z,1016.16
2022-12-25T08:20:27.187Z,1016.15
2022-12-25T08:21:27.788Z,1016.21
2022-12-25T08:22:28.382Z,1016.05
2022-12-25T08:23:28.983Z,1016.07
2022-12-25T08:24:29.577Z,1016.16
2022-12-25T08:25:30.195Z,1016.11
2022-12-25T08:26:30.776Z,1016.16
2022-12-25T08:27:31.391Z,1016.19
2022-12-25T08:28:31.974Z,1016.19
2022-12-25T08:29:32.584Z,1016.19
2022-12-25T08:30:33.213Z,1016.13
2022-12-25T08:31:33.925Z,1016.16
2022-12-25T08:32:34.617Z,1016.18
2022-12-25T08:33:35.228Z,1016.23
2022-12-25T08:34:35.818Z,1016.23
2022-12-25T08:35:36.433Z,1016.21
2022-12-25T08:36:37.108Z,1016.28
2022-12-25T08:37:37.731Z,1016.33
2022-12-25T08:38:38.329Z,1016.42
2022-12-25T08:39:38.926Z,1016.42
2022-12-25T08:40:39.546Z,1016.44
2022-12-25T08:41:40.282Z,1016.49
2022-12-25T08:42:40.869Z,1016.51
2022-12-25T08:43:41.487Z,1016.53
2022-12-25T08:44:42.134Z,1016.58
2022-12-25T08:45:42.814Z,1016.62
2022-12-25T08:46:43.467Z,1016.60
2022-12-25T08:47:44.112Z,1016.61
2022-12-25T08:48:45.545Z,1016.53
2022-12-25T08:49:46.166Z,1016.66
2022-12-25T08:50:46.810Z,1016.62
2022-12-25T08:51:47.465Z,1016.66
2022-12-25T08:52:48.252Z,1016.66
2022-12-25T08:53:48.830Z,1016.71
2022-12-25T08:54:49.489Z,1016.77
2022-12-25T08:55:50.077Z,1016.71
2022-12-25T08:56:50.667Z,1016.69
2022-12-25T08:57:51.268Z,1016.62
2022-12-25T08:58:51.869Z,1016.66
2022-12-25T08:59:52.460Z,1016.70
2022-12-25T09:00:53.087Z,1016.72
2022-12-25T09:01:53.813Z,1016.76
2022-12-25T09:02:54.550Z,1016.73
2022-12-25T09:03:55.978Z,1016.81
2022-12-25T09:04:56.643Z,1016.87
2022-12-25T09:05:57.243Z,1016.82
2022-12-25T09:06:57.839Z,1016.91
2022-12-25T09:07:58.461Z,1016.94
2022-12-25T09:08:59.038Z,1017.02
2022-12-25T09:09:59.640Z,1017.04
2022-12-25T09:11:00.235Z,1016.99
2022-12-25T09:12:00.839Z,1016.94
2022-12-25T09:13:01.433Z,1016.95
2022-12-25T09:14:02.029Z,1017.01
2022-12-25T09:15:02.640Z,1017.09
2022-12-25T09:16:03.307Z,1017.13
2022-12-25T09:17:03.896Z,1017.09
2022-12-25T09:18:04.495Z,1017.09
2022-12-25T09:19:05.091Z,1017.11
2022-12-25T09:20:05.690Z,1017.04
2022-12-25T09:21:06.361Z,1017.14
2022-12-25T09:22:06.956Z,1017.09
2022-12-25T09:23:13.503Z,1017.03
2022-12-25T09:24:09.151Z,1017.05
2022-12-25T09:25:09.740Z,1017.09
2022-12-25T09:26:10.338Z,1017.02
2022-12-25T09:27:10.929Z,1017.09
2022-12-25T09:28:11.531Z,1017.12
2022-12-25T09:29:12.147Z,1017.06
2022-12-25T09:30:12.730Z,1017.07
2022-12-25T09:31:13.454Z,1017.01
2022-12-25T09:32:14.086Z,1017.07
2022-12-25T09:33:14.683Z,1017.13
2022-12-25T09:34:18.740Z,1017.14
2022-12-25T09:35:16.873Z,1017.12
2022-12-25T09:36:17.469Z,1017.14
2022-12-25T09:37:18.070Z,1017.15
2022-12-25T09:38:18.669Z,1017.16
2022-12-25T09:39:19.331Z,1017.20
2022-12-25T09:40:19.925Z,1017.16
2022-12-25T09:41:20.526Z,1017.20
2022-12-25T09:42:21.127Z,1017.18
2022-12-25T09:43:21.894Z,1017.19
2022-12-25T09:44:22.473Z,1017.18
2022-12-25T09:45:23.074Z,1017.11
2022-12-25T09:46:23.730Z,1017.13
2022-12-25T09:47:24.467Z,1017.19
2022-12-25T09:48:25.064Z,1017.30
2022-12-25T09:49:26.519Z,1017.43
2022-12-25T09:50:27.181Z,1017.30
2022-12-25T09:51:27.783Z,1017.23
2022-12-25T09:52:28.380Z,1017.32
2022-12-25T09:53:28.983Z,1017.30
2022-12-25T09:54:29.596Z,1017.29
2022-12-25T09:55:30.282Z,1017.30
2022-12-25T09:56:30.875Z,1017.23
2022-12-25T09:57:32.324Z,1017.20
2022-12-25T09:58:32.928Z,1017.28
2022-12-25T09:59:33.518Z,1017.20
2022-12-25T10:00:34.119Z,1017.25
2022-12-25T10:01:34.807Z,1017.32
2022-12-25T10:02:35.831Z,1017.36
2022-12-25T10:03:36.654Z,1017.46
2022-12-25T10:04:40.763Z,1017.39
2022-12-25T10:05:38.860Z,1017.41
2022-12-25T10:06:39.456Z,1017.39
2022-12-25T10:07:40.058Z,1017.41
2022-12-25T10:08:40.654Z,1017.50
2022-12-25T10:09:41.256Z,1017.41
2022-12-25T10:10:41.848Z,1017.41
2022-12-25T10:11:42.450Z,1017.52
2022-12-25T10:12:43.049Z,1017.43
2022-12-25T10:13:43.662Z,1017.55
2022-12-25T10:14:44.261Z,1017.59
2022-12-25T10:15:45.862Z,1017.72
2022-12-25T10:16:46.453Z,1017.75
2022-12-25T10:17:47.851Z,1017.83
2022-12-25T10:18:48.443Z,1017.82
2022-12-25T10:19:49.075Z,1017.65
2022-12-25T10:20:49.706Z,1017.75
2022-12-25T10:21:50.305Z,1017.73
2022-12-25T10:22:50.904Z,1017.82
2022-12-25T10:23:52.306Z,1017.73
2022-12-25T10:24:52.918Z,1017.75
2022-12-25T10:25:53.513Z,1017.68
2022-12-25T10:26:54.113Z,1017.71
2022-12-25T10:27:54.712Z,1017.83
2022-12-25T10:28:55.301Z,1017.66
2022-12-25T10:29:55.917Z,1017.62
2022-12-25T10:30:56.551Z,1017.63
2022-12-25T10:31:57.134Z,1017.67
2022-12-25T10:32:57.735Z,1017.65
2022-12-25T10:33:58.333Z,1017.72
2022-12-25T10:34:58.932Z,1017.78
2022-12-25T10:35:59.537Z,1017.82
2022-12-25T10:37:00.120Z,1017.78
2022-12-25T10:38:00.730Z,1017.70
2022-12-25T10:39:01.323Z,1017.64
2022-12-25T10:40:01.923Z,1017.69
2022-12-25T10:41:02.524Z,1017.64
2022-12-25T10:42:03.119Z,1017.58
2022-12-25T10:43:03.708Z,1017.58
2022-12-25T10:44:04.412Z,1017.64
2022-12-25T10:45:05.184Z,1017.60
2022-12-25T10:46:05.729Z,1017.64
2022-12-25T10:47:06.321Z,1017.62
2022-12-25T10:48:07.978Z,1017.70
2022-12-25T10:49:08.506Z,1017.77
2022-12-25T10:50:09.112Z,1017.80
2022-12-25T10:51:10.595Z,1017.84
2022-12-25T10:52:11.196Z,1017.80
2022-12-25T10:53:11.842Z,1017.74
2022-12-25T10:54:12.450Z,1017.73
2022-12-25T10:55:13.034Z,1017.66
2022-12-25T10:56:13.687Z,1017.70
2022-12-25T10:57:14.283Z,1017.67
2022-12-25T10:58:14.886Z,1017.65
2022-12-25T10:59:15.476Z,1017.72
2022-12-25T11:00:16.929Z,1017.72
2022-12-25T11:01:17.712Z,1017.66
2022-12-25T11:02:18.628Z,1017.63
2022-12-25T11:03:19.158Z,1017.61
2022-12-25T11:04:19.869Z,1017.63
2022-12-25T11:05:20.541Z,1017.65
2022-12-25T11:06:21.135Z,1017.66
2022-12-25T11:07:21.738Z,1017.62
2022-12-25T11:08:22.340Z,1017.60
2022-12-25T11:09:22.934Z,1017.52
2022-12-25T11:10:23.539Z,1017.51
2022-12-25T11:11:24.178Z,1017.47
2022-12-25T11:12:24.762Z,1017.38
2022-12-25T11:13:25.370Z,1017.45
2022-12-25T11:14:26.015Z,1017.33
2022-12-25T11:15:26.646Z,1017.34
2022-12-25T11:16:27.339Z,1017.20
2022-12-25T11:17:27.946Z,1017.25
2022-12-25T11:18:28.550Z,1017.23
2022-12-25T11:19:29.151Z,1017.26
2022-12-25T11:20:29.741Z,1017.22
2022-12-25T11:21:30.344Z,1017.23
2022-12-25T11:22:30.939Z,1017.21
2022-12-25T11:23:31.543Z,1017.22
2022-12-25T11:24:32.148Z,1017.28
2022-12-25T11:25:32.805Z,1017.24
2022-12-25T11:26:33.393Z,1017.23
2022-12-25T11:27:33.986Z,1017.23
2022-12-25T11:28:34.598Z,1017.21
2022-12-25T11:29:35.193Z,1017.28
2022-12-25T11:30:35.797Z,1017.29
2022-12-25T11:31:36.544Z,1017.40
2022-12-25T11:32:37.170Z,1017.40
2022-12-25T11:33:37.766Z,1017.55
2022-12-25T11:34:38.372Z,1017.51
2022-12-25T11:35:38.963Z,1017.44
2022-12-25T11:36:39.573Z,1017.47
2022-12-25T11:37:40.151Z,1017.50
2022-12-25T11:38:40.756Z,1017.61
2022-12-25T11:39:41.344Z,1017.65
2022-12-25T11:40:41.949Z,1017.69
2022-12-25T11:41:42.542Z,1017.73
2022-12-25T11:42:43.144Z,1017.73
2022-12-25T11:43:43.742Z,1017.79
2022-12-25T11:44:44.344Z,1017.77
2022-12-25T11:45:44.940Z,1017.73
2022-12-25T11:46:45.635Z,1017.72
2022-12-25T11:47:46.204Z,1017.85
2022-12-25T11:48:46.808Z,1017.81
2022-12-25T11:49:50.334Z,1017.75
2022-12-25T11:50:49.844Z,1017.83
2022-12-25T11:51:50.440Z,1017.72
2022-12-25T11:52:51.042Z,1017.77
2022-12-25T11:53:51.641Z,1017.73
2022-12-25T11:54:52.266Z,1017.61
2022-12-25T11:55:52.852Z,1017.67
2022-12-25T11:56:53.517Z,1017.75
2022-12-25T11:57:54.150Z,1017.75
2022-12-25T11:58:54.763Z,1017.76
2022-12-25T11:59:55.348Z,1017.83
2022-12-25T12:00:55.947Z,1017.75
2022-12-25T12:01:56.641Z,1017.83
2022-12-25T12:02:57.450Z,1017.78
2022-12-25T12:03:58.196Z,1017.77
2022-12-25T12:04:58.795Z,1017.79
2022-12-25T12:05:59.388Z,1017.75
2022-12-25T12:07:00.037Z,1017.77
2022-12-25T12:08:00.658Z,1017.72
2022-12-25T12:09:01.256Z,1017.81
2022-12-25T12:10:01.890Z,1017.84
2022-12-25T12:11:02.498Z,1017.73
2022-12-25T12:12:03.090Z,1017.80
2022-12-25T12:13:03.841Z,1017.77
2022-12-25T12:14:04.437Z,1017.74